»·PEaware :: PH-TIM KCMA-KSNA

PH-TIM :: KCMA-KSNA

FLIGHT INFORMATION

Flight Status: Arrived
Operator: Privately registered:
Netherlands
More flights under this callsign
Pilot: Tim P. (6337)
Aircraft: CESSNA 172 SKYHAWK
(C172)
More flights by this aircraft type
Origin: KCMA Camarillo
United States
Destination: KSNA John Wayne-Orange Co
United States
More flights between these airports :: More routes between these airports
Route: VTU044 GINNA V326 VNY V186 BAYJY V363 POXKU V8 SLI
File this flight plan on PilotEdge
Remarks: VTUP7
Altitude:
(Current/Filed)
5,000ft
Speed:
(Current/Filed)
105kts
Departed: 08-Aug-18 09:59 AM
Arrived: 08-Aug-18 11:00 AM
Distance/Time
Traveled:
69nm/1:01
Distance/Time
To Go:
Arrived

Flight Plot

Page will automatically refresh every two minutes.


Map Options




Map Legend


Flown Route
Filed Route
Departure Airport
Arrival Airport
Navaid (VOR, NDB)
Fix

Horizontal Profiles

Position Reports

Time Latitude Longitude Heading Altitude Ground
Speed
08-Aug-18 09:46 34.210217 -119.078410 87 81ft 0kts
08-Aug-18 09:47 34.210217 -119.078410 87 81ft 0kts
08-Aug-18 09:48 34.210217 -119.078410 87 81ft 0kts
08-Aug-18 09:49 34.210217 -119.078410 87 81ft 0kts
08-Aug-18 09:50 34.210217 -119.078410 87 81ft 0kts
08-Aug-18 09:51 34.210217 -119.078410 87 81ft 0kts
08-Aug-18 09:52 34.210217 -119.078410 87 81ft 0kts
08-Aug-18 09:53 34.210217 -119.078410 87 81ft 0kts
08-Aug-18 09:54 34.210877 -119.078109 278 81ft 6kts
08-Aug-18 09:55 34.210910 -119.081586 270 81ft 14kts
08-Aug-18 09:56 34.211786 -119.084140 30 81ft 11kts
08-Aug-18 09:57 34.212605 -119.083999 310 81ft 0kts
08-Aug-18 09:58 34.212604 -119.083998 311 81ft 0kts
08-Aug-18 09:59 34.212606 -119.084001 310 81ft 1kts
08-Aug-18 10:00 34.213721 -119.088827 271 83ft 65kts
08-Aug-18 10:01 34.214604 -119.112407 286 571ft 80kts
08-Aug-18 10:02 34.220642 -119.137922 287 1251ft 81kts
08-Aug-18 10:03 34.227265 -119.163905 286 1855ft 86kts
08-Aug-18 10:04 34.233125 -119.191598 284 2452ft 86kts
08-Aug-18 10:05 34.238998 -119.219757 281 3009ft 86kts
08-Aug-18 10:06 34.254986 -119.231688 57 3482ft 87kts
08-Aug-18 10:07 34.249006 -119.207029 145 3954ft 82kts
08-Aug-18 10:08 34.239670 -119.183619 102 4370ft 83kts
08-Aug-18 10:09 34.237098 -119.156071 90 4799ft 84kts
08-Aug-18 10:10 34.235652 -119.126183 91 5023ft 100kts
08-Aug-18 10:11 34.236028 -119.090183 89 5008ft 110kts
08-Aug-18 10:12 34.234903 -119.053128 93 4973ft 112kts
08-Aug-18 10:13 34.232326 -119.014988 92 4933ft 113kts
08-Aug-18 10:14 34.233964 -118.976934 86 4863ft 113kts
08-Aug-18 10:15 34.235276 -118.939173 90 4824ft 112kts
08-Aug-18 10:16 34.234197 -118.903346 91 4998ft 102kts
08-Aug-18 10:17 34.232330 -118.867282 90 5033ft 111kts
08-Aug-18 10:18 34.231825 -118.829979 90 5028ft 111kts
08-Aug-18 10:19 34.229888 -118.792827 91 5040ft 110kts
08-Aug-18 10:20 34.229836 -118.755588 90 5042ft 110kts
08-Aug-18 10:21 34.229028 -118.718362 90 5043ft 111kts
08-Aug-18 10:22 34.228133 -118.681124 90 5045ft 111kts
08-Aug-18 10:23 34.227231 -118.643954 90 5046ft 111kts
08-Aug-18 10:24 34.226318 -118.606740 90 5048ft 111kts
08-Aug-18 10:25 34.225388 -118.569335 90 5049ft 111kts
08-Aug-18 10:26 34.224448 -118.531973 90 5051ft 111kts
08-Aug-18 10:27 34.223493 -118.494560 89 5054ft 111kts
08-Aug-18 10:28 34.213619 -118.460245 108 5053ft 107kts
08-Aug-18 10:29 34.203719 -118.426658 109 5047ft 105kts
08-Aug-18 10:30 34.193732 -118.393609 110 5041ft 104kts
08-Aug-18 10:31 34.183949 -118.361427 111 5033ft 103kts
08-Aug-18 10:32 34.175001 -118.331990 112 5030ft 103kts
08-Aug-18 10:33 34.164920 -118.299570 114 5023ft 103kts
08-Aug-18 10:34 34.154754 -118.266977 113 5015ft 104kts
08-Aug-18 10:35 34.144735 -118.234641 116 5007ft 104kts
08-Aug-18 10:36 34.131969 -118.203074 117 4998ft 105kts
08-Aug-18 10:37 34.121361 -118.169828 107 4997ft 106kts
08-Aug-18 10:38 34.114976 -118.134472 109 4975ft 108kts
08-Aug-18 10:39 34.105250 -118.100298 114 4969ft 108kts
08-Aug-18 10:40 34.093362 -118.066951 114 4953ft 109kts
08-Aug-18 10:41 34.082073 -118.032625 114 4943ft 110kts
08-Aug-18 10:42 34.071690 -117.997353 109 4930ft 112kts
08-Aug-18 10:43 34.061475 -117.961618 113 4928ft 112kts
08-Aug-18 10:44 34.049529 -117.927001 110 4959ft 111kts
08-Aug-18 10:45 34.039150 -117.892124 110 4996ft 110kts
08-Aug-18 10:46 34.027223 -117.858201 113 5024ft 110kts
08-Aug-18 10:47 34.017238 -117.823532 102 5049ft 109kts
08-Aug-18 10:48 34.005976 -117.790247 144 4993ft 105kts
08-Aug-18 10:49 33.977564 -117.784149 185 4551ft 104kts
08-Aug-18 10:50 33.947937 -117.785778 176 4077ft 107kts
08-Aug-18 10:51 33.917237 -117.784145 176 4070ft 111kts
08-Aug-18 10:52 33.892379 -117.783367 179 3754ft 110kts
08-Aug-18 10:53 33.857670 -117.785081 182 3123ft 107kts
08-Aug-18 10:54 33.828450 -117.785582 181 3052ft 106kts
08-Aug-18 10:55 33.803362 -117.789581 189 3108ft 112kts
08-Aug-18 10:56 33.769916 -117.807946 208 2380ft 117kts
08-Aug-18 10:57 33.746256 -117.822726 210 1717ft 112kts
08-Aug-18 10:58 33.719006 -117.839785 206 1018ft 107kts
08-Aug-18 10:59 33.696178 -117.854023 208 386ft 72kts
08-Aug-18 11:00 33.682248 -117.862816 208 96ft 49kts
08-Aug-18 11:01 33.674156 -117.867912 185 60ft 12kts
08-Aug-18 11:02 33.673028 -117.867318 230 60ft 9kts
08-Aug-18 11:03 33.670701 -117.869266 219 60ft 11kts
08-Aug-18 11:04 33.668374 -117.871681 220 60ft 9kts
08-Aug-18 11:05 33.666886 -117.872537 216 60ft 0kts
08-Aug-18 11:06 33.666886 -117.872537 217 60ft 0kts
08-Aug-18 11:07 33.666886 -117.872537 217 60ft 0kts

Navigation Log

Ident Type
Flight plan parsing failed, navigation log unavailable